Time;durP1;ratioP1;P1;durP2;ratioP2;P2;SDS_P1;SDS_P2;PMS_P1;PMS_P2;Temp;Humidity;BMP_temperature;BMP_pressure;BME280_temperature;BME280_humidity;BME280_pressure;Samples;Min_cycle;Max_cycle;Signal;HPM_P1;HPM_P2
2021/08/05 00:00:18;;;;;;;12.00;8.05;;;;;;;27.07;55.29;99847.56;5088240;28;20024;-21
2021/08/05 00:02:44;;;;;;;11.07;7.70;;;;;;;27.01;55.78;99848.91;5088350;28;20044;-21
2021/08/05 00:05:11;;;;;;;9.40;7.25;;;;;;;26.96;56.01;99829.97;5087654;28;20028;-21
2021/08/05 00:07:36;;;;;;;9.83;7.80;;;;;;;26.80;56.31;99822.38;5088363;28;20050;-21
2021/08/05 00:10:02;;;;;;;10.98;8.15;;;;;;;26.82;56.14;99841.97;5088166;28;20040;-21
2021/08/05 00:12:27;;;;;;;12.73;8.00;;;;;;;27.38;54.76;99844.44;5088039;28;20483;-21
2021/08/05 00:14:53;;;;;;;10.88;7.25;;;;;;;27.48;54.14;99826.75;5088110;28;20465;-21
2021/08/05 00:17:19;;;;;;;12.45;7.72;;;;;;;27.89;52.90;99849.72;5087830;28;20089;-21
2021/08/05 00:19:44;;;;;;;11.23;8.30;;;;;;;27.87;53.00;99840.22;5088035;28;20062;-21
2021/08/05 00:22:10;;;;;;;11.65;8.23;;;;;;;28.11;51.87;99829.28;5087699;28;20089;-21
2021/08/05 00:24:35;;;;;;;10.93;8.18;;;;;;;28.15;51.79;99840.38;5087984;28;20035;-22
2021/08/05 00:27:00;;;;;;;10.82;7.78;;;;;;;27.92;52.42;99837.28;5087469;28;20113;-21
2021/08/05 00:29:26;;;;;;;15.38;8.80;;;;;;;27.68;53.21;99827.84;5087283;28;20048;-22
2021/08/05 00:31:51;;;;;;;10.15;8.27;;;;;;;28.06;51.89;99837.75;5087833;28;20024;-21
2021/08/05 00:34:17;;;;;;;10.07;8.55;;;;;;;27.34;53.89;99848.19;5087749;28;20109;-21
2021/08/05 00:36:42;;;;;;;10.52;8.07;;;;;;;27.06;54.68;99846.00;5087609;28;20031;-21
2021/08/05 00:39:08;;;;;;;14.95;9.02;;;;;;;27.21;54.09;99848.09;5087589;28;20035;-21
2021/08/05 00:41:33;;;;;;;11.23;8.70;;;;;;;27.32;53.82;99831.28;5087660;28;20032;-21
2021/08/05 00:44:00;;;;;;;13.52;8.65;;;;;;;27.28;54.01;99849.53;5087357;28;20035;-21
2021/08/05 00:46:25;;;;;;;11.85;9.02;;;;;;;27.37;53.96;99844.78;5087427;28;20415;-21
2021/08/05 00:48:51;;;;;;;11.35;9.10;;;;;;;27.36;54.22;99849.47;5087878;28;20032;-21
2021/08/05 00:51:16;;;;;;;10.93;8.57;;;;;;;27.59;53.37;99841.66;5087237;28;20039;-21
2021/08/05 00:53:44;;;;;;;13.57;9.50;;;;;;;27.59;53.27;99844.38;5087579;28;20842;-21
2021/08/05 00:56:09;;;;;;;;;;;;;;;27.74;52.70;99842.13;5087941;28;20547;-21
2021/08/05 00:58:35;;;;;;;11.07;8.95;;;;;;;27.63;52.70;99844.50;5087341;28;19934;-21
2021/08/05 01:01:03;;;;;;;12.57;8.73;;;;;;;27.42;53.31;99839.06;5087261;28;20777;-21
2021/08/05 01:03:34;;;;;;;11.30;9.43;;;;;;;27.49;53.47;99847.56;5052608;28;20034;-21
2021/08/05 01:06:36;;;;;;;12.35;9.48;;;;;;;27.25;54.00;99840.84;5070001;28;20461;-21
2021/08/05 01:09:22;;;;;;;10.07;8.82;;;;;;;27.31;53.97;99846.13;5069096;28;20400;-21
2021/08/05 01:11:57;;;;;;;13.60;9.32;;;;;;;26.60;56.41;99839.56;5069139;28;20423;-21
2021/08/05 01:14:23;;;;;;;11.60;8.65;;;;;;;26.38;57.08;99821.53;5069593;28;20024;-21
2021/08/05 01:16:48;;;;;;;11.77;9.60;;;;;;;26.23;57.55;99823.66;5070506;28;20039;-21
2021/08/05 01:19:40;;;;;;;12.02;9.15;;;;;;;26.65;56.69;99839.38;5090871;28;20023;-21
2021/08/05 01:22:13;;;;;;;10.52;8.90;;;;;;;26.17;58.63;99837.84;5080403;28;20032;-21
2021/08/05 01:24:41;;;;;;;12.02;9.02;;;;;;;25.96;59.46;99833.13;5091327;28;20024;-21
2021/08/05 01:27:06;;;;;;;10.45;8.98;;;;;;;26.45;57.03;99830.78;5073215;28;20040;-21
2021/08/05 01:29:34;;;;;;;12.10;9.15;;;;;;;26.57;56.33;99826.53;5091141;28;20067;-21
2021/08/05 01:32:01;;;;;;;11.07;8.75;;;;;;;26.74;55.90;99837.38;5091374;28;20489;-22
2021/08/05 01:34:26;;;;;;;15.30;9.38;;;;;;;26.77;56.36;99838.66;5073212;28;20028;-21
2021/08/05 01:36:52;;;;;;;11.65;9.05;;;;;;;26.36;57.92;99830.06;5073198;28;20043;-21
2021/08/05 01:39:17;;;;;;;10.32;9.20;;;;;;;26.04;58.71;99826.81;5090381;28;20050;-21
2021/08/05 01:41:44;;;;;;;12.52;9.68;;;;;;;26.12;58.59;99814.25;5072983;28;20024;-21
2021/08/05 01:44:11;;;;;;;13.85;9.98;;;;;;;26.42;58.17;99828.72;5072925;28;20032;-21
2021/08/05 01:46:37;;;;;;;13.43;9.48;;;;;;;26.61;57.67;99835.72;5072961;28;20024;-21
2021/08/05 01:49:02;;;;;;;13.88;9.45;;;;;;;26.68;57.49;99833.25;5090564;28;20039;-21
2021/08/05 01:51:28;;;;;;;14.98;9.02;;;;;;;26.24;58.89;99829.97;5072707;28;20115;-21
2021/08/05 01:53:53;;;;;;;11.20;9.23;;;;;;;26.01;60.18;99822.03;5056174;28;20039;-21
2021/08/05 01:56:23;;;;;;;15.77;10.85;;;;;;;26.24;59.24;99810.81;5055935;28;20024;-21
2021/08/05 01:58:49;;;;;;;10.85;9.10;;;;;;;25.91;60.04;99814.19;5090665;28;20369;-21
2021/08/05 02:01:18;;;;;;;15.20;9.48;;;;;;;25.79;60.84;99816.78;5090644;28;20491;-21
2021/08/05 02:03:45;;;;;;;13.35;9.73;;;;;;;26.03;60.28;99811.56;5090910;28;20047;-21
2021/08/05 02:06:13;;;;;;;12.90;9.43;;;;;;;25.55;61.18;99804.47;5056254;28;20058;-21
2021/08/05 02:08:47;;;;;;;13.80;10.13;;;;;;;25.92;60.46;99815.78;5072297;28;20062;-21
2021/08/05 02:11:12;;;;;;;13.30;10.38;;;;;;;26.01;60.42;99824.75;5072492;28;20028;-21
2021/08/05 02:13:40;;;;;;;18.55;10.95;;;;;;;25.58;61.61;99812.03;5072442;28;20078;-21
2021/08/05 02:16:07;;;;;;;18.75;10.32;;;;;;;25.77;60.92;99835.44;5055884;28;20438;-21
2021/08/05 02:18:33;;;;;;;15.93;10.68;;;;;;;26.18;59.46;99828.53;5055475;28;20028;-21
2021/08/05 02:20:59;;;;;;;15.77;11.10;;;;;;;25.85;60.08;99829.94;5072143;28;20400;-21
2021/08/05 02:23:25;;;;;;;13.63;10.45;;;;;;;25.94;59.84;99823.66;5055714;28;20084;-21
2021/08/05 02:25:51;;;;;;;18.25;11.48;;;;;;;25.91;60.29;99832.50;5090087;28;20496;-21
2021/08/05 02:28:17;;;;;;;12.52;10.52;;;;;;;26.31;58.61;99826.69;5071671;28;20042;-21
2021/08/05 02:30:42;;;;;;;14.60;10.93;;;;;;;26.48;57.91;99834.81;5071586;28;20052;-21
2021/08/05 02:33:08;;;;;;;15.63;11.75;;;;;;;26.64;57.48;99837.78;5071653;28;20043;-21
2021/08/05 02:35:34;;;;;;;15.20;11.80;;;;;;;26.32;58.39;99828.31;5090415;28;20027;-21
2021/08/05 02:38:00;;;;;;;14.45;11.15;;;;;;;26.11;59.23;99831.75;5089946;28;20024;-21
2021/08/05 02:40:25;;;;;;;15.75;10.90;;;;;;;26.12;59.84;99846.25;5089906;28;20032;-21
2021/08/05 02:42:51;;;;;;;13.20;11.43;;;;;;;25.91;60.11;99835.22;5071872;28;20049;-21
2021/08/05 02:45:16;;;;;;;15.25;11.02;;;;;;;25.62;61.24;99851.22;5071551;28;20039;-21
2021/08/05 02:47:42;;;;;;;14.40;11.75;;;;;;;25.52;61.74;99845.28;5071630;28;20016;-21
2021/08/05 02:50:07;;;;;;;13.40;10.68;;;;;;;25.47;61.70;99843.53;5071757;28;20035;-21
2021/08/05 02:52:33;;;;;;;16.25;11.48;;;;;;;25.61;61.49;99846.88;5071596;28;20020;-21
2021/08/05 02:55:00;;;;;;;13.82;11.70;;;;;;;25.25;62.69;99848.06;5071403;28;20542;-21
2021/08/05 02:57:26;;;;;;;15.83;11.10;;;;;;;24.96;63.49;99836.97;5071437;28;20039;-21
2021/08/05 02:59:51;;;;;;;14.98;11.55;;;;;;;25.21;63.25;99844.38;5071722;28;20051;-21
2021/08/05 03:02:17;;;;;;;16.80;11.27;;;;;;;25.32;62.96;99835.88;5071476;28;20032;-21
2021/08/05 03:04:43;;;;;;;28.70;11.68;;;;;;;25.18;63.52;99820.41;5089714;28;20028;-21
2021/08/05 03:07:09;;;;;;;13.68;10.85;;;;;;;25.18;63.82;99847.72;5089092;28;20474;-21
2021/08/05 03:09:35;;;;;;;20.25;12.13;;;;;;;25.15;63.92;99842.91;5054574;28;20036;-21
2021/08/05 03:12:00;;;;;;;74.35;24.70;;;;;;;25.01;64.08;99842.28;5089130;28;20476;-22
2021/08/05 03:14:26;;;;;;;53.50;37.10;;;;;;;24.90;64.32;99841.78;5089214;28;20458;-21
2021/08/05 03:16:51;;;;;;;20.75;15.50;;;;;;;24.90;64.74;99849.94;5089390;28;20040;-21
2021/08/05 03:19:17;;;;;;;20.50;12.48;;;;;;;24.99;64.20;99845.31;5088699;28;20032;-21
2021/08/05 03:21:42;;;;;;;23.23;13.43;;;;;;;25.44;62.75;99853.19;5089002;28;20032;-21
2021/08/05 03:24:07;;;;;;;18.63;12.48;;;;;;;25.46;62.35;99847.41;5089002;28;20035;-21
2021/08/05 03:26:33;;;;;;;15.48;11.13;;;;;;;25.24;62.97;99841.00;5088754;28;20043;-21
2021/08/05 03:28:58;;;;;;;18.80;12.32;;;;;;;25.15;63.90;99842.91;5088798;28;20051;-21
2021/08/05 03:31:24;;;;;;;15.93;12.05;;;;;;;25.15;64.00;99842.09;5088680;28;20038;-21
2021/08/05 03:33:49;;;;;;;13.80;12.35;;;;;;;25.32;62.30;99833.94;5088663;28;20035;-21
2021/08/05 03:36:15;;;;;;;21.10;13.05;;;;;;;25.39;62.74;99847.88;5088509;28;20036;-21
2021/08/05 03:38:40;;;;;;;101.35;17.70;;;;;;;25.62;62.04;99856.69;5088996;28;20546;-21
2021/08/05 03:41:06;;;;;;;21.05;13.75;;;;;;;25.09;63.84;99855.09;5087838;28;20031;-21
2021/08/05 03:43:32;;;;;;;22.15;12.98;;;;;;;24.69;64.64;99840.81;5088744;28;20388;-21
2021/08/05 03:45:58;;;;;;;27.38;13.68;;;;;;;24.78;65.14;99858.75;5087232;28;20059;-21
2021/08/05 03:48:23;;;;;;;16.42;13.38;;;;;;;24.54;65.98;99858.41;5088961;28;20473;-21
2021/08/05 03:50:49;;;;;;;17.33;13.27;;;;;;;24.94;64.73;99869.22;5088936;28;20093;-22
2021/08/05 03:53:14;;;;;;;17.52;13.60;;;;;;;24.64;65.98;99852.63;5088204;28;20031;-21
2021/08/05 03:55:39;;;;;;;16.27;13.10;;;;;;;24.60;66.17;99855.22;5088360;28;20035;-21
2021/08/05 03:58:09;;;;;;;16.45;13.60;;;;;;;24.24;67.11;99858.13;5088241;28;20488;-21
2021/08/05 04:00:35;;;;;;;19.30;13.93;;;;;;;24.34;67.02;99863.28;5088253;28;20035;-22
2021/08/05 04:03:01;;;;;;;15.98;13.20;;;;;;;24.39;66.55;99854.97;5087934;28;20035;-21
2021/08/05 04:05:26;;;;;;;16.13;13.57;;;;;;;24.25;66.50;99859.72;5088478;28;20074;-21
2021/08/05 04:07:52;;;;;;;15.23;13.73;;;;;;;24.78;64.72;99871.59;5088149;28;20446;-21
2021/08/05 04:10:17;;;;;;;15.55;13.88;;;;;;;24.84;64.56;99870.31;5069982;28;20029;-22
2021/08/05 04:12:43;;;;;;;16.15;13.90;;;;;;;24.70;65.77;99872.38;5088148;28;20415;-21
2021/08/05 04:15:08;;;;;;;18.35;14.13;;;;;;;24.73;65.13;99864.38;5088056;28;20032;-22
2021/08/05 04:17:34;;;;;;;16.02;13.57;;;;;;;25.00;64.25;99852.34;5087723;28;20070;-21
2021/08/05 04:20:00;;;;;;;16.83;15.13;;;;;;;25.20;63.89;99847.41;5087847;28;20085;-21
2021/08/05 04:22:25;;;;;;;18.65;14.68;;;;;;;25.30;63.86;99865.41;5088206;28;20443;-21
2021/08/05 04:24:51;;;;;;;17.00;13.95;;;;;;;25.37;63.66;99871.16;5087867;28;20036;-21
2021/08/05 04:27:16;;;;;;;16.48;14.45;;;;;;;25.29;63.65;99864.56;5087817;28;20032;-21
2021/08/05 04:29:42;;;;;;;17.40;14.15;;;;;;;25.34;63.46;99858.19;5087525;28;20059;-21
2021/08/05 04:32:07;;;;;;;17.45;14.15;;;;;;;25.42;63.52;99862.81;5087783;28;20043;-21
2021/08/05 04:34:33;;;;;;;19.48;15.15;;;;;;;25.01;64.75;99853.97;5088168;28;20028;-21
2021/08/05 04:36:58;;;;;;;16.33;12.82;;;;;;;25.26;58.35;99843.41;5087570;28;20470;-21
2021/08/05 04:39:24;;;;;;;17.38;12.20;;;;;;;25.77;55.89;99860.00;5087543;28;20041;-21
2021/08/05 04:41:49;;;;;;;16.30;11.93;;;;;;;26.06;55.22;99851.88;5087458;28;20039;-21
2021/08/05 04:44:14;;;;;;;21.17;16.00;;;;;;;26.32;55.40;99834.56;5088016;28;20036;-21
2021/08/05 04:46:40;;;;;;;24.17;18.38;;;;;;;26.57;59.34;99851.16;5087327;28;20032;-22
2021/08/05 04:49:05;;;;;;;28.25;20.05;;;;;;;26.83;58.16;99857.28;5087811;28;20384;-21
2021/08/05 04:51:32;;;;;;;21.65;15.82;;;;;;;26.76;59.03;99853.47;5087511;28;20407;-22
2021/08/05 04:54:02;;;;;;;16.98;13.95;;;;;;;26.86;55.95;99851.13;5087568;28;20039;-22
2021/08/05 04:56:28;;;;;;;18.50;15.40;;;;;;;27.00;55.45;99852.81;5087291;28;20024;-22
2021/08/05 04:58:53;;;;;;;22.10;16.00;;;;;;;27.04;57.55;99832.63;5087352;28;20038;-23
2021/08/05 05:01:18;;;;;;;18.95;15.50;;;;;;;27.05;57.40;99838.91;5087192;28;20032;-21
2021/08/05 05:03:44;;;;;;;18.23;15.27;;;;;;;27.11;58.15;99851.25;5087634;28;20043;-21
2021/08/05 05:06:09;;;;;;;22.02;15.38;;;;;;;27.05;56.53;99850.69;5087240;28;20037;-22
2021/08/05 05:08:35;;;;;;;19.63;14.23;;;;;;;27.17;55.55;99852.63;5087243;28;20039;-21
2021/08/05 05:11:00;;;;;;;17.55;15.18;;;;;;;27.03;56.77;99852.13;5069084;28;20470;-22
2021/08/05 05:13:26;;;;;;;20.63;15.57;;;;;;;26.90;56.54;99818.44;5086990;28;20061;-22
2021/08/05 05:15:51;;;;;;;18.98;15.18;;;;;;;27.09;58.41;99845.31;5087130;28;20940;-21
2021/08/05 05:18:20;;;;;;;18.20;13.23;;;;;;;26.82;58.36;99828.31;5086933;28;20024;-22
2021/08/05 05:20:45;;;;;;;18.70;14.45;;;;;;;26.39;59.73;99820.38;5087342;28;20035;-21
2021/08/05 05:23:11;;;;;;;16.33;13.48;;;;;;;26.57;60.33;99824.63;5086619;28;20040;-21
2021/08/05 05:25:36;;;;;;;15.05;13.45;;;;;;;26.91;59.08;99827.44;5087020;28;20557;-21
2021/08/05 05:28:02;;;;;;;16.08;13.73;;;;;;;26.83;59.99;99821.72;5087063;28;20047;-21
2021/08/05 05:30:27;;;;;;;18.58;15.35;;;;;;;26.28;61.08;99819.97;5086982;28;20052;-21
2021/08/05 05:32:53;;;;;;;16.45;13.20;;;;;;;26.92;58.46;99818.09;5087150;28;20472;-21
2021/08/05 05:35:19;;;;;;;21.05;13.93;;;;;;;26.93;59.67;99816.94;5086933;28;20032;-22
2021/08/05 05:37:46;;;;;;;17.00;12.98;;;;;;;27.16;57.92;99829.16;5086464;28;20496;-21
2021/08/05 05:40:12;;;;;;;16.63;13.90;;;;;;;27.12;59.52;99828.22;5086868;28;20142;-22
2021/08/05 05:42:37;;;;;;;15.25;13.65;;;;;;;26.77;60.53;99828.50;5086782;28;20032;-21
2021/08/05 05:45:04;;;;;;;15.88;13.15;;;;;;;26.71;61.21;99835.31;5086451;28;20122;-21
2021/08/05 05:47:29;;;;;;;17.52;14.63;;;;;;;26.55;62.47;99826.06;5086930;28;20028;-21
2021/08/05 05:49:55;;;;;;;17.27;14.30;;;;;;;26.28;63.13;99827.38;5087272;28;20074;-21
2021/08/05 05:52:21;;;;;;;18.70;15.00;;;;;;;26.59;62.51;99818.84;5086903;28;20024;-21
2021/08/05 05:54:47;;;;;;;23.38;15.20;;;;;;;27.22;60.33;99810.59;5086838;28;20040;-21
2021/08/05 05:57:12;;;;;;;16.60;14.48;;;;;;;27.19;60.84;99812.03;5086943;28;20040;-21
2021/08/05 05:59:40;;;;;;;15.55;13.23;;;;;;;27.36;60.37;99816.59;5086616;28;20055;-21
2021/08/05 06:02:05;;;;;;;20.80;14.77;;;;;;;26.88;60.81;99795.28;5086832;28;20028;-22
2021/08/05 06:04:31;;;;;;;15.25;13.23;;;;;;;26.98;61.10;99803.88;5090806;28;20036;-21
2021/08/05 06:06:56;;;;;;;21.25;14.88;;;;;;;27.00;61.67;99809.03;5090608;28;20036;-21
2021/08/05 06:09:22;;;;;;;93.38;18.05;;;;;;;27.41;60.38;99810.09;5090407;28;20494;-21
2021/08/05 06:11:47;;;;;;;20.52;14.30;;;;;;;27.27;60.56;99804.94;5090419;28;20035;-21
2021/08/05 06:14:12;;;;;;;17.30;14.05;;;;;;;27.77;58.86;99809.38;5090240;28;20051;-21
2021/08/05 06:16:38;;;;;;;17.55;13.63;;;;;;;27.91;58.38;99811.81;5090764;28;20032;-21
2021/08/05 06:19:03;;;;;;;15.35;13.73;;;;;;;27.81;58.34;99801.28;5089908;28;20020;-21
2021/08/05 06:21:29;;;;;;;18.83;13.73;;;;;;;27.77;58.51;99809.38;5090458;28;20488;-21
2021/08/05 06:23:55;;;;;;;15.82;13.48;;;;;;;27.73;58.03;99804.94;5090350;28;20043;-21
2021/08/05 06:26:22;;;;;;;16.50;13.60;;;;;;;28.17;55.96;99802.44;5090254;28;20024;-21
2021/08/05 06:28:47;;;;;;;15.80;14.17;;;;;;;28.40;55.45;99803.56;5071709;28;20056;-21
2021/08/05 06:31:13;;;;;;;19.75;14.38;;;;;;;28.04;57.03;99790.69;5090203;28;20680;-21
2021/08/05 06:33:39;;;;;;;16.70;12.88;;;;;;;28.43;56.56;99797.38;5090481;28;20067;-21
2021/08/05 06:36:04;;;;;;;16.67;14.00;;;;;;;28.05;57.02;99776.66;5089912;28;20028;-21
2021/08/05 06:38:30;;;;;;;15.50;13.82;;;;;;;28.45;55.75;99778.63;5089881;28;20024;-21
2021/08/05 06:40:55;;;;;;;17.75;13.77;;;;;;;28.61;56.70;99794.41;5089906;28;20032;-21
2021/08/05 06:43:21;;;;;;;16.30;13.73;;;;;;;28.03;57.56;99789.91;5089692;28;20037;-21
2021/08/05 06:45:46;;;;;;;18.05;13.82;;;;;;;28.17;57.75;99795.00;5090057;28;20093;-21
2021/08/05 06:48:12;;;;;;;28.15;14.43;;;;;;;28.60;55.36;99784.56;5089794;28;20032;-21
2021/08/05 06:50:38;;;;;;;16.58;14.82;;;;;;;28.69;56.48;99779.75;5089984;28;20040;-21
2021/08/05 06:53:03;;;;;;;15.52;12.43;;;;;;;28.98;54.41;99784.09;5089290;28;20028;-21
2021/08/05 06:55:29;;;;;;;16.60;14.73;;;;;;;29.19;53.76;99783.91;5089721;28;20046;-21
2021/08/05 06:57:54;;;;;;;16.30;13.60;;;;;;;29.31;53.25;99774.03;5089472;28;20028;-22
2021/08/05 07:00:19;;;;;;;14.98;13.43;;;;;;;29.13;54.65;99762.56;5089498;28;20032;-21
2021/08/05 07:02:45;;;;;;;16.15;13.70;;;;;;;28.95;55.42;99764.78;5089404;28;20023;-21
2021/08/05 07:05:11;;;;;;;15.88;13.75;;;;;;;29.22;54.75;99739.28;5089471;28;20488;-21
2021/08/05 07:07:36;;;;;;;16.00;13.95;;;;;;;28.99;54.45;99751.97;5089309;28;20086;-21
2021/08/05 07:10:02;;;;;;;18.98;14.23;;;;;;;29.09;54.32;99740.47;5089388;28;20134;-21
2021/08/05 07:12:28;;;;;;;16.10;13.43;;;;;;;29.45;53.94;99741.44;5089279;28;20024;-21
2021/08/05 07:14:53;;;;;;;13.35;11.93;;;;;;;29.29;53.70;99743.38;5088142;28;20039;-22
2021/08/05 07:17:19;;;;;;;18.38;14.02;;;;;;;28.98;55.27;99753.13;5089121;28;20024;-21
2021/08/05 07:19:44;;;;;;;15.75;13.18;;;;;;;29.54;54.83;99755.78;5089099;28;20039;-21
2021/08/05 07:22:10;;;;;;;15.80;14.07;;;;;;;29.32;54.01;99756.38;5089045;28;20487;-24
2021/08/05 07:24:35;;;;;;;15.98;13.82;;;;;;;29.28;54.25;99741.75;5089096;28;20034;-24
2021/08/05 07:27:01;;;;;;;16.75;12.95;;;;;;;29.20;53.94;99727.84;5088919;28;20040;-24
2021/08/05 07:29:28;;;;;;;16.08;14.38;;;;;;;29.83;53.74;99723.50;5088615;28;20087;-24
2021/08/05 07:31:54;;;;;;;;;;;;;;;30.09;52.13;99742.19;5089321;28;20032;-24
2021/08/05 07:34:19;;;;;;;16.45;13.43;;;;;;;30.10;51.50;99723.72;5088880;28;19908;-24
2021/08/05 07:36:44;;;;;;;16.77;13.40;;;;;;;30.16;51.93;99714.03;5088746;28;20046;-24
2021/08/05 07:39:11;;;;;;;14.27;12.80;;;;;;;30.37;51.50;99725.53;5088648;28;20035;-24
2021/08/05 07:41:38;;;;;;;23.07;15.23;;;;;;;30.14;51.51;99716.34;5088733;28;20031;-24
2021/08/05 07:44:08;;;;;;;16.83;13.35;;;;;;;30.14;51.46;99710.84;5088468;28;20451;-24
2021/08/05 07:46:34;;;;;;;15.07;13.38;;;;;;;30.42;50.33;99711.50;5088516;28;20057;-24
2021/08/05 07:48:59;;;;;;;18.60;13.50;;;;;;;30.07;51.74;99706.00;5088072;28;20067;-24
2021/08/05 07:51:26;;;;;;;16.75;13.57;;;;;;;30.47;50.46;99712.38;5070373;28;20058;-24
2021/08/05 07:53:52;;;;;;;16.73;13.88;;;;;;;30.62;49.79;99703.25;5088139;28;20054;-24
2021/08/05 07:56:18;;;;;;;17.10;13.38;;;;;;;30.73;50.02;99696.00;5088563;28;20036;-24
2021/08/05 07:58:43;;;;;;;14.70;13.10;;;;;;;30.40;51.39;99697.31;5088511;28;20036;-24
2021/08/05 08:01:09;;;;;;;14.52;13.07;;;;;;;31.02;50.51;99702.06;5088258;28;20045;-24
2021/08/05 08:03:34;;;;;;;15.07;13.48;;;;;;;30.97;48.74;99696.84;5088114;28;20077;-24
2021/08/05 08:06:00;;;;;;;18.40;13.25;;;;;;;31.21;47.99;99679.97;5088154;28;20085;-24
2021/08/05 08:08:25;;;;;;;17.90;12.82;;;;;;;31.85;46.71;99690.44;5088309;28;20031;-24
2021/08/05 08:10:51;;;;;;;19.08;13.63;;;;;;;32.02;46.85;99687.16;5088132;28;20039;-24
2021/08/05 08:13:17;;;;;;;14.85;13.30;;;;;;;31.85;47.30;99676.63;5088060;28;20573;-24
2021/08/05 08:15:42;;;;;;;15.68;13.88;;;;;;;32.12;46.00;99671.13;5088161;28;20572;-24
2021/08/05 08:18:08;;;;;;;17.55;13.18;;;;;;;32.35;45.69;99668.28;5087825;28;20024;-24
2021/08/05 08:20:33;;;;;;;15.80;13.25;;;;;;;32.01;46.72;99673.75;5087892;28;20046;-24
2021/08/05 08:22:59;;;;;;;14.57;12.85;;;;;;;31.96;46.41;99672.09;5087564;28;20082;-24
2021/08/05 08:25:25;;;;;;;18.58;13.50;;;;;;;32.05;46.49;99662.78;5087459;28;20024;-24
2021/08/05 08:27:50;;;;;;;15.88;12.98;;;;;;;31.83;46.35;99667.94;5087803;28;20028;-24
2021/08/05 08:30:16;;;;;;;14.85;13.23;;;;;;;32.29;45.18;99667.81;5087570;28;20515;-24
2021/08/05 08:32:43;;;;;;;15.93;13.10;;;;;;;32.59;44.87;99684.34;5087762;28;20035;-24
2021/08/05 08:35:09;;;;;;;15.93;12.10;;;;;;;32.55;44.08;99655.09;5087480;28;20032;-24
2021/08/05 08:37:35;;;;;;;13.95;12.52;;;;;;;32.55;43.80;99661.44;5087966;28;20040;-24
2021/08/05 08:58:17;;;;;;;16.08;11.77;;;;;;;32.58;44.32;99637.81;4813898;27;8365361;-23
2021/08/05 09:00:44;;;;;;;15.43;11.02;;;;;;;32.98;41.98;99627.94;5104180;28;20081;-22
2021/08/05 09:03:09;;;;;;;14.63;11.68;;;;;;;33.17;42.03;99629.69;5103987;28;20063;-23
2021/08/05 09:05:35;;;;;;;16.55;11.63;;;;;;;33.09;41.99;99628.06;5104376;28;20066;-22
2021/08/05 09:08:01;;;;;;;15.50;11.70;;;;;;;32.97;42.42;99627.13;5105551;28;20036;-23
2021/08/05 09:10:27;;;;;;;19.15;12.43;;;;;;;33.41;42.92;99620.78;5105435;28;20032;-23
2021/08/05 09:12:53;;;;;;;15.48;11.68;;;;;;;33.95;39.92;99618.34;5105220;28;20402;-23
2021/08/05 09:15:34;;;;;;;15.70;11.10;;;;;;;33.64;39.69;99619.00;5105656;28;20465;-22
2021/08/05 09:18:00;;;;;;;14.10;11.70;;;;;;;33.65;39.92;99599.22;5104680;28;20036;-23
2021/08/05 09:20:25;;;;;;;14.82;11.38;;;;;;;33.67;39.56;99602.41;5103586;28;20030;-22
2021/08/05 09:22:51;;;;;;;12.80;11.18;;;;;;;33.65;39.85;99598.44;5105034;28;20031;-22
2021/08/05 09:25:21;;;;;;;17.63;11.90;;;;;;;34.08;38.75;99604.16;5104645;28;20456;-22
2021/08/05 09:27:47;;;;;;;13.57;10.60;;;;;;;34.54;37.57;99600.78;5105205;28;20028;-22
2021/08/05 09:30:20;;;;;;;16.30;10.95;;;;;;;34.57;37.26;99584.19;5103979;28;20055;-23
2021/08/05 09:32:45;;;;;;;14.85;10.73;;;;;;;34.94;37.57;99590.53;5103532;28;20035;-22
2021/08/05 09:35:11;;;;;;;20.67;11.77;;;;;;;35.16;36.16;99583.81;5104896;28;20035;-23
2021/08/05 09:37:37;;;;;;;13.40;10.98;;;;;;;35.26;35.86;99575.91;5104447;28;20036;-23
2021/08/05 09:40:13;;;;;;;13.80;10.67;;;;;;;35.39;35.99;99565.97;5104480;28;20085;-23
2021/08/05 09:42:39;;;;;;;14.77;10.60;;;;;;;34.97;36.54;99575.91;5104486;28;20794;-22
2021/08/05 09:45:06;;;;;;;16.42;10.60;;;;;;;35.14;36.07;99563.22;5104489;28;20039;-23
2021/08/05 09:47:35;;;;;;;25.33;10.05;;;;;;;35.54;34.91;99556.44;5104357;28;20096;-23
2021/08/05 09:50:01;;;;;;;14.95;9.82;;;;;;;35.56;34.81;99556.81;5087280;28;20085;-22
2021/08/05 09:52:31;;;;;;;16.60;10.80;;;;;;;35.80;34.45;99543.28;5104542;28;20106;-22
2021/08/05 09:54:57;;;;;;;17.65;10.77;;;;;;;35.76;34.89;99542.53;5104312;28;20055;-23
2021/08/05 09:57:30;;;;;;;13.43;10.03;;;;;;;36.00;33.14;99546.34;5115927;28;20505;-22
2021/08/05 10:00:03;;;;;;;14.15;10.00;;;;;;;35.98;33.84;99537.63;5124983;28;20092;-22
2021/08/05 10:02:47;;;;;;;17.63;10.27;;;;;;;35.95;34.30;99528.16;5124897;28;20023;-23
2021/08/05 10:05:30;;;;;;;12.98;10.13;;;;;;;36.21;34.62;99523.28;5124616;28;20031;-23
2021/08/05 10:07:59;;;;;;;14.25;10.05;;;;;;;36.12;33.89;99528.44;5119486;28;20020;-22
2021/08/05 10:10:47;;;;;;;14.20;9.82;;;;;;;35.83;33.12;99497.31;5110623;28;20409;-22
2021/08/05 10:13:12;;;;;;;16.20;10.18;;;;;;;35.80;33.94;99498.91;5095542;28;20031;-22
2021/08/05 10:15:38;;;;;;;12.60;10.02;;;;;;;36.11;33.12;99496.34;5092458;28;20064;-22
2021/08/05 10:18:04;;;;;;;12.80;10.07;;;;;;;36.23;32.07;99487.56;5080605;28;20091;-22
2021/08/05 10:20:29;;;;;;;15.70;9.90;;;;;;;36.65;31.80;99485.66;5101090;28;20024;-22
2021/08/05 10:22:56;;;;;;;13.65;10.27;;;;;;;36.47;32.30;99471.13;5099874;28;20097;-23
2021/08/05 10:25:25;;;;;;;13.70;9.60;;;;;;;36.55;31.59;99480.97;5099791;28;20035;-22
2021/08/05 10:27:51;;;;;;;14.02;9.98;;;;;;;36.71;31.44;99481.25;5100641;28;20053;-22
2021/08/05 10:30:17;;;;;;;14.50;9.80;;;;;;;37.00;31.46;99445.63;5099654;28;20031;-22
2021/08/05 10:32:42;;;;;;;13.25;9.85;;;;;;;37.59;31.20;99447.34;5096974;28;20020;-22
2021/08/05 10:35:08;;;;;;;18.67;10.00;;;;;;;37.17;31.63;99452.22;5090222;28;20039;-22
2021/08/05 10:37:34;;;;;;;16.40;10.60;;;;;;;37.64;30.34;99436.94;5090124;28;20024;-22
2021/08/05 10:39:59;;;;;;;15.55;10.00;;;;;;;37.70;30.27;99424.16;5072032;28;20078;-22
2021/08/05 10:42:25;;;;;;;13.90;9.45;;;;;;;38.11;30.13;99434.31;5089519;28;20024;-22
2021/08/05 10:44:51;;;;;;;17.27;9.90;;;;;;;38.19;29.66;99421.84;5089912;28;20040;-22
2021/08/05 10:47:26;;;;;;;14.93;9.63;;;;;;;37.82;29.98;99415.22;5089826;28;20509;-22
2021/08/05 10:50:00;;;;;;;14.27;9.20;;;;;;;37.89;30.01;99409.56;5090589;28;20032;-22
2021/08/05 10:52:37;;;;;;;17.77;9.40;;;;;;;38.15;29.24;99398.84;5071786;28;20081;-22
2021/08/05 10:55:18;;;;;;;15.85;9.68;;;;;;;37.77;28.68;99401.78;5089638;28;20116;-22
2021/08/05 10:57:44;;;;;;;15.93;9.40;;;;;;;38.29;28.38;99392.22;5089203;28;20121;-22
2021/08/05 11:00:14;;;;;;;16.40;10.07;;;;;;;38.46;28.79;99385.56;5071715;28;20029;-22
2021/08/05 11:02:49;;;;;;;15.70;10.18;;;;;;;38.29;28.22;99387.47;5089682;28;20028;-22
2021/08/05 11:05:38;;;;;;;17.42;9.13;;;;;;;38.59;27.54;99386.53;5089979;28;20147;-22
2021/08/05 11:08:09;;;;;;;14.20;8.35;;;;;;;38.57;27.56;99385.41;5078610;28;20040;-23
2021/08/05 11:10:37;;;;;;;14.80;9.45;;;;;;;38.58;26.99;99364.69;5089461;28;20035;-22
2021/08/05 11:13:08;;;;;;;14.10;9.15;;;;;;;39.05;26.68;99358.19;5089381;28;20043;-22
2021/08/05 11:15:34;;;;;;;19.13;9.63;;;;;;;39.20;25.39;99358.69;5089492;28;20153;-23
2021/08/05 11:18:02;;;;;;;15.17;9.40;;;;;;;39.31;26.13;99339.72;5088979;28;20028;-23
2021/08/05 11:20:28;;;;;;;16.02;9.35;;;;;;;39.40;25.58;99334.34;5088283;28;20028;-22
2021/08/05 11:22:53;;;;;;;13.27;9.67;;;;;;;39.14;26.47;99333.31;5089140;28;20411;-22
2021/08/05 11:25:19;;;;;;;22.57;11.67;;;;;;;39.62;25.75;99345.81;5089281;28;20431;-22
2021/08/05 11:28:17;;;;;;;22.10;14.67;;;;;;;39.31;25.40;99331.34;5088980;28;20408;-22
2021/08/05 11:30:54;;;;;;;19.35;13.98;;;;;;;39.15;25.38;99327.31;5089129;28;20270;-22
2021/08/05 11:33:41;;;;;;;18.17;13.05;;;;;;;39.45;25.48;99331.03;5088950;28;20024;-22
2021/08/05 11:36:40;;;;;;;22.38;14.18;;;;;;;39.54;25.47;99322.09;5088836;28;20036;-22